Altoona, WI (54720)

12:13 AM CST on March 02, 2015 (GMT -0600)
APRSWXNET Altoona WI US | Change Station
CLOSE
Current Station
Personal Weather Station
Location: Altoona, WI
Elevation: 892 ft
Nearby Weather Stations

Elev 892 ft 44.81 °N, 91.42 °W | Updated 23 minutes ago

Clear
Clear
19 °F
Feels Like 19 °F
N
0
Wind Variable Wind from WSW
Gusts 0.0 mph

Today
High -- | Low -- °F
--% Chance of Precip.
Yesterday
High -- | Low -- °F
Precip. -- in
6:42 AM 5:54 PM
Waxing Gibbous, 89% visible
Pressure 30.39 in
Visibility 10.0 miles
Clouds Clear
Windchill 19 °F
Dew Point 11 °F
Humidity 70%
Rainfall 0.00 in
Snow Depth Not available.
UV 0 out of 12
Pollen .40 out of 12
Air Quality Not available.
Flu Activity Not available.
METAR KEAU 020556Z AUTO 30006KT 10SM CLR M08/M13 A3033 RMK AO2 SLP289 T10831133 11056 21106 410391111 53026

More Conditions Fewer Conditions

Pressure 30.39 in
Visibility 10.0 miles
Clouds Clear
Windchill 19 °F
Dew Point 11 °F
Humidity 70%
Rainfall 0.00 in
Snow Depth Not available.
UV 0 out of 12
Pollen .40 out of 12
Air Quality Not available.
Flu Activity Not available.
METAR KEAU 020556Z AUTO 30006KT 10SM CLR M08/M13 A3033 RMK AO2 SLP289 T10831133 11056 21106 410391111 53026

More Conditions Fewer Conditions

10-Day Weather Forecast

Almanac

Astronomy

Mar. 02, 2015 Rise Set
Actual Time
Civil Twilight
Nautical Twilight
Astronomical Twilight
Moon
Length of Visible Light
Length of Day
Tomorrow will be .
, % of the Moon is Illuminated

Today's Extremes

State Highs State Lows

Community

WunderPhotos

Upload Photos

1,801,738 photos uploaded!

WunderBlogs® & News

Nearby

Air Quality

  Air Quality AQ Index Pollutant
Not available.

Snow Depth

Station Depth Elevation

Earthquake Activity

City Distance Mag. Time & Date
Minimum magnitude displayed is 2.5.

Coastal Water Temperatures

Place Temperature

Nearby Weather Stations